Ashford, WA

4:58 AM PDT on August 21, 2014 (GMT -0700)
HADS NISQUALLY RIVER NEAR NATIONAL NE WA US USGS | Change Station
CLOSE
Current Station
Personal Weather Station
Location: Elbe, WA
Elevation: 1450 ft
Nearby Weather Stations

Elev 1450 ft 46.75 °N, 122.08 °W | Updated 58 minutes ago

Clear
Clear
48 °F
Feels Like 48 °F
N
Wind Variable Wind from North
Gusts 0.0 mph

Today
High -- | Low -- °F
--% Chance of Precip.
Yesterday
High -- | Low -- °F
Precip. -- in
6:14 AM 8:07 PM
Waning Crescent, 15% visible
Pressure 30.04 in
Visibility 10.0 miles
Clouds Clear
Windchill 48 °F
Dew Point Not available.
Humidity Not available.
Rainfall 0.00 in
Snow Depth Not available.
UV 0 out of 12
Pollen 3.10 out of 12
Air Quality Not available.
Flu Activity Not available.
METAR KGRF 211058Z AUTO 14002KT 10SM CLR 10/09 A3003 RMK AO2 SLP173 T00990087 PWINO $

More Conditions Fewer Conditions

Pressure 30.04 in
Visibility 10.0 miles
Clouds Clear
Windchill 48 °F
Dew Point Not available.
Humidity Not available.
Rainfall 0.00 in
Snow Depth Not available.
UV 0 out of 12
Pollen 3.10 out of 12
Air Quality Not available.
Flu Activity Not available.
METAR KGRF 211058Z AUTO 14002KT 10SM CLR 10/09 A3003 RMK AO2 SLP173 T00990087 PWINO $

More Conditions Fewer Conditions

10-Day Weather Forecast

Almanac

Astronomy

Aug. 21, 2014 Rise Set
Actual Time 6:14 AM PDT 8:07 PM PDT
Civil Twilight 5:41 AM PDT 8:40 PM PDT
Nautical Twilight 5:01 AM PDT 9:19 PM PDT
Astronomical Twilight 4:17 AM PDT 10:03 PM PDT
Moon 2:42 AM PDT 5:45 PM PDT
Length of Visible Light 14h 58m
Length of Day
13h 53m
Tomorrow will be 3m 5s shorter.
Waning Crescent, 15% of the Moon is Illuminated
Today
Waning Crescent
Aug 25
New
Sep 2
First Quarter
Sep 8
Full
Sep 15
Last Quarter

Today's Extremes

State Highs State Lows

Community

WunderPhotos

Upload Photos

1,745,864 photos uploaded!

Nearby

Snow Depth

Station Depth Elevation
Morse Lake 0 in 5400 ft
Spirit Lake 0 in 3120 ft
Lone Pine 0 in 3800 ft
White Pass E.S. 0 in 4500 ft
Spencer Meadow 0 in 3400 ft

Earthquake Activity

City Distance Mag. Time & Date
No recent earthquake activity has been reported nearby.
Minimum magnitude displayed is 2.5.

Coastal Water Temperatures

Place Temperature
No Stations Reporting

Nearby Weather Stations